createdAt,value
2022-10-19T00:01:55.149Z,13.13
2022-10-19T00:05:36.365Z,13.13
2022-10-19T00:10:54.886Z,13.11
2022-10-19T00:16:14.074Z,13.02
2022-10-19T00:22:48.244Z,12.99
2022-10-19T00:26:53.098Z,12.97
2022-10-19T00:32:12.678Z,12.93
2022-10-19T00:38:46.858Z,12.92
2022-10-19T00:42:50.958Z,12.89
2022-10-19T00:48:10.123Z,12.88
2022-10-19T00:53:29.477Z,12.83
2022-10-19T01:00:03.644Z,12.82
2022-10-19T01:04:09.140Z,12.76
2022-10-19T01:09:26.021Z,12.78
2022-10-19T01:14:45.033Z,12.75
2022-10-19T01:20:04.594Z,12.69
2022-10-19T01:25:23.543Z,12.69
2022-10-19T01:30:42.314Z,12.63
2022-10-19T01:36:02.215Z,12.55
2022-10-19T01:41:21.779Z,12.48
2022-10-19T01:46:41.225Z,12.45
2022-10-19T01:52:00.760Z,12.42
2022-10-19T01:57:20.319Z,12.41
2022-10-19T01:57:46.403Z,12.56
2022-10-19T02:03:05.665Z,12.39
2022-10-19T02:09:39.839Z,12.35
2022-10-19T02:13:44.913Z,12.22
2022-10-19T02:19:03.647Z,12.18
2022-10-19T02:24:23.275Z,12.13
2022-10-19T02:29:41.279Z,12.1
2022-10-19T02:36:39.861Z,12.1
2022-10-19T02:40:20.416Z,12.11
2022-10-19T02:45:39.238Z,12.04
2022-10-19T02:50:58.776Z,11.97
2022-10-19T02:56:17.658Z,11.94
2022-10-19T03:01:36.862Z,11.89
2022-10-19T03:06:55.419Z,11.84
2022-10-19T03:12:14.849Z,11.79
2022-10-19T03:17:33.951Z,11.71
2022-10-19T03:28:11.338Z,11.69
2022-10-19T03:33:30.691Z,11.7
2022-10-19T03:38:49.605Z,11.69
2022-10-19T03:44:08.637Z,11.63
2022-10-19T03:49:28.076Z,11.58
2022-10-19T03:58:01.145Z,11.49
2022-10-19T04:05:26.308Z,11.46
2022-10-19T04:10:45.796Z,11.5
2022-10-19T04:16:04.556Z,11.5
2022-10-19T04:26:43.802Z,11.52
2022-10-19T04:32:02.572Z,11.52
2022-10-19T04:37:21.946Z,11.5
2022-10-19T04:42:41.272Z,11.49
2022-10-19T04:48:00.804Z,11.49
2022-10-19T04:53:20.198Z,11.38
2022-10-19T04:58:39.624Z,11.3
2022-10-19T05:03:58.878Z,11.25
2022-10-19T05:09:18.478Z,11.23
2022-10-19T05:14:39.173Z,11.25
2022-10-19T05:19:56.933Z,11.23
2022-10-19T05:25:16.219Z,11.23
2022-10-19T05:30:35.938Z,11.23
2022-10-19T05:39:08.992Z,11.21
2022-10-19T05:41:13.987Z,11.22
2022-10-19T05:51:52.324Z,11.23
2022-10-19T05:57:11.148Z,11.28
2022-10-19T06:02:30.578Z,11.28
2022-10-19T06:07:50.309Z,11.33
2022-10-19T06:16:23.462Z,11.38
2022-10-19T06:20:38.804Z,11.33
2022-10-19T06:23:46.362Z,11.38
2022-10-19T06:29:05.444Z,11.4
2022-10-19T06:34:24.496Z,11.43
2022-10-19T06:40:58.601Z,11.47
2022-10-19T06:45:15.138Z,11.53
2022-10-19T06:50:23.864Z,11.53
2022-10-19T06:55:42.718Z,11.55
2022-10-19T07:01:02.136Z,11.59
2022-10-19T07:06:21.552Z,11.67
2022-10-19T07:11:45.607Z,11.69
2022-10-19T07:17:00.200Z,11.67
2022-10-19T07:22:23.216Z,11.7
2022-10-19T07:27:38.237Z,11.77
2022-10-19T07:32:57.029Z,11.74
2022-10-19T07:41:30.113Z,11.73
2022-10-19T07:43:34.697Z,11.81
2022-10-19T07:50:33.279Z,11.87
2022-10-19T07:54:13.482Z,11.91
2022-10-19T07:59:32.759Z,12
2022-10-19T08:05:01.961Z,12.13
2022-10-19T08:10:10.775Z,12.18
2022-10-19T08:15:30.283Z,12.28
2022-10-19T08:20:49.084Z,12.28
2022-10-19T08:26:08.347Z,12.27
2022-10-19T08:32:42.520Z,12.39
2022-10-19T08:36:48.111Z,12.49
2022-10-19T08:45:21.159Z,12.52
2022-10-19T08:47:24.902Z,12.52
2022-10-19T08:54:23.500Z,12.56
2022-10-19T09:03:27.281Z,12.55
2022-10-19T09:08:42.291Z,12.49
2022-10-19T09:14:04.955Z,12.49
2022-10-19T09:19:19.390Z,12.53
2022-10-19T09:24:38.206Z,12.58
2022-10-19T09:29:57.562Z,12.59
2022-10-19T09:35:16.773Z,12.6
2022-10-19T09:40:36.381Z,12.52
2022-10-19T09:45:54.460Z,12.49
2022-10-19T09:51:14.101Z,12.53
2022-10-19T09:56:32.669Z,12.59
2022-10-19T10:01:52.373Z,12.72
2022-10-19T10:07:12.109Z,12.76
2022-10-19T10:12:32.611Z,12.75
2022-10-19T10:17:51.603Z,12.86
2022-10-19T10:23:11.304Z,12.97
2022-10-19T10:28:30.256Z,13.11
2022-10-19T10:33:49.802Z,13.27
2022-10-19T10:39:08.849Z,13.43
2022-10-19T10:44:28.055Z,13.4
2022-10-19T10:49:46.994Z,13.43
2022-10-19T10:56:21.185Z,13.37
2022-10-19T11:00:36.585Z,13.38
2022-10-19T11:07:35.336Z,13.47
2022-10-19T11:11:04.190Z,13.62
2022-10-19T11:16:23.328Z,13.82
2022-10-19T11:21:41.364Z,13.91
2022-10-19T11:28:39.930Z,13.91
2022-10-19T11:32:21.303Z,13.95
2022-10-19T11:37:45.562Z,14.09
2022-10-19T11:42:58.622Z,14.06
2022-10-19T11:48:17.624Z,14.02
2022-10-19T11:53:36.521Z,13.98
2022-10-19T11:58:55.788Z,14.02
2022-10-19T12:04:14.755Z,14.09
2022-10-19T12:09:33.563Z,14.1
2022-10-19T12:14:53.528Z,13.98
2022-10-19T12:20:14.820Z,13.91
2022-10-19T12:25:31.715Z,13.89
2022-10-19T12:30:51.364Z,13.86
2022-10-19T12:36:11.051Z,13.89
2022-10-19T12:41:30.168Z,13.95
2022-10-19T12:46:49.959Z,13.95
2022-10-19T12:52:08.192Z,13.86
2022-10-19T12:57:26.931Z,13.79
2022-10-19T13:02:45.285Z,13.79
2022-10-19T13:08:05.333Z,13.77
2022-10-19T13:13:23.505Z,13.75
2022-10-19T13:18:42.380Z,13.77
2022-10-19T13:24:02.040Z,13.71
2022-10-19T13:29:21.680Z,13.72
2022-10-19T13:34:41.946Z,13.75
2022-10-19T13:40:00.513Z,13.81
2022-10-19T13:45:20.893Z,13.79
2022-10-19T13:50:39.114Z,13.74
2022-10-19T13:55:59.102Z,13.72
2022-10-19T14:01:18.164Z,13.78
2022-10-19T14:06:36.953Z,13.82
2022-10-19T14:11:57.244Z,13.94
2022-10-19T14:17:19.895Z,13.94
2022-10-19T14:22:35.924Z,14.04
2022-10-19T14:27:55.454Z,14.04
2022-10-19T14:33:14.791Z,13.99
2022-10-19T14:38:34.197Z,13.92
2022-10-19T14:45:32.793Z,13.77
2022-10-19T14:49:13.730Z,13.68
2022-10-19T14:54:32.706Z,13.65
2022-10-19T14:59:51.073Z,13.46
2022-10-19T15:05:10.423Z,13.24
2022-10-19T15:10:32.405Z,13.14
2022-10-19T15:17:03.530Z,12.97
2022-10-19T15:21:12.419Z,12.85
2022-10-19T15:26:26.910Z,12.85
2022-10-19T15:31:46.653Z,12.92
2022-10-19T15:37:07.261Z,12.95
2022-10-19T15:42:24.570Z,12.99
2022-10-19T15:47:42.811Z,13.02
2022-10-19T15:53:01.829Z,13.02
2022-10-19T15:58:22.143Z,12.83
2022-10-19T16:03:41.678Z,12.62
2022-10-19T16:09:00.758Z,12.44
2022-10-19T16:14:20.228Z,12.22
2022-10-19T16:19:39.041Z,12.02
2022-10-19T16:24:58.511Z,11.79
2022-10-19T16:30:17.463Z,11.55
2022-10-19T16:35:36.385Z,11.39
2022-10-19T16:40:56.495Z,11.26
2022-10-19T16:46:14.894Z,11.25
2022-10-19T16:51:34.096Z,11.19
2022-10-19T16:56:53.776Z,11.11
2022-10-19T17:03:27.946Z,10.98
2022-10-19T17:07:31.414Z,10.94
2022-10-19T17:12:50.812Z,10.94
2022-10-19T17:18:09.381Z,10.95
2022-10-19T17:23:28.434Z,10.85
2022-10-19T17:28:48.457Z,10.74
2022-10-19T17:34:07.959Z,10.54
2022-10-19T17:39:28.873Z,10.47
2022-10-19T17:44:45.802Z,10.39
2022-10-19T17:50:05.292Z,10.36
2022-10-19T17:55:24.535Z,10.36
2022-10-19T18:00:43.644Z,10.32
2022-10-19T18:06:02.890Z,10.18
2022-10-19T18:11:30.760Z,10.16
2022-10-19T18:16:39.957Z,10.08
2022-10-19T18:21:59.621Z,10.02
2022-10-19T18:27:18.391Z,10.02
2022-10-19T18:32:38.269Z,10.12
2022-10-19T18:37:56.943Z,9.89
2022-10-19T18:43:16.493Z,9.75
2022-10-19T18:48:36.298Z,9.52
2022-10-19T18:53:55.775Z,9.39
2022-10-19T18:59:15.486Z,9.34
2022-10-19T19:04:34.956Z,9.34
2022-10-19T19:09:53.961Z,9.57
2022-10-19T19:15:13.151Z,9.68
2022-10-19T19:20:32.806Z,9.68
2022-10-19T19:27:31.836Z,9.68
2022-10-19T19:31:13.120Z,9.18
2022-10-19T19:36:32.670Z,8.79
2022-10-19T19:41:51.407Z,8.76
2022-10-19T19:47:10.627Z,8.68
2022-10-19T19:52:29.540Z,8.79
2022-10-19T19:52:57.663Z,8.93
2022-10-19T19:58:17.182Z,9
2022-10-19T20:03:36.427Z,8.89
2022-10-19T20:08:55.953Z,8.72
2022-10-19T20:14:14.722Z,8.72
2022-10-19T20:19:32.708Z,8.75
2022-10-19T20:24:52.100Z,8.7
2022-10-19T20:30:11.121Z,8.63
2022-10-19T20:35:30.564Z,8.47
2022-10-19T20:42:04.766Z,8.6
2022-10-19T20:46:11.005Z,8.64
2022-10-19T20:51:30.851Z,8.39
2022-10-19T20:56:48.297Z,8.39
2022-10-19T21:02:07.791Z,8.49
2022-10-19T21:07:26.900Z,8.53
2022-10-19T21:12:46.070Z,8.46
2022-10-19T21:18:05.677Z,8.35
2022-10-19T21:23:25.261Z,8.31
2022-10-19T21:28:44.763Z,7.95
2022-10-19T21:34:03.920Z,7.74
2022-10-19T21:39:23.664Z,7.76
2022-10-19T21:44:42.598Z,7.84
2022-10-19T21:51:16.774Z,7.9
2022-10-19T21:55:22.318Z,7.83
2022-10-19T22:00:41.712Z,7.63
2022-10-19T22:05:59.626Z,7.46
2022-10-19T22:11:18.524Z,7.38
2022-10-19T22:16:37.469Z,7.5
2022-10-19T22:21:57.112Z,7.48
2022-10-19T22:27:16.399Z,7.42
2022-10-19T22:32:36.257Z,7.48
2022-10-19T22:37:55.136Z,7.46
2022-10-19T22:43:14.647Z,7.42
2022-10-19T22:48:33.079Z,7.48
2022-10-19T22:53:52.728Z,7.42
2022-10-19T22:59:12.099Z,7.21
2022-10-19T23:04:32.153Z,6.97
2022-10-19T23:09:51.315Z,6.8
2022-10-19T23:15:10.648Z,6.44
2022-10-19T23:20:29.770Z,6.58
2022-10-19T23:25:49.309Z,6.74
2022-10-19T23:31:08.420Z,6.85
2022-10-19T23:36:27.480Z,6.94
2022-10-19T23:41:46.900Z,6.97
2022-10-19T23:47:05.839Z,6.94
2022-10-19T23:52:25.197Z,6.94
2022-10-19T23:57:44.698Z,6.8
